Time;durP1;ratioP1;P1;durP2;ratioP2;P2;SDS_P1;SDS_P2;PMS_P1;PMS_P2;Temp;Humidity;BMP_temperature;BMP_pressure;BME280_temperature;BME280_humidity;BME280_pressure;Samples;Min_cycle;Max_cycle;Signal;HPM_P1;HPM_P2
2021/08/27 00:00:55;;;;;;;;;;;12.90;99.90;;;11.67;94.83;95402.75;10401966;28;2053;-78
2021/08/27 00:05:58;;;;;;;;;;;12.80;99.90;;;11.51;95.84;95393.25;10399105;28;2030;-79
2021/08/27 00:11:01;;;;;;;;;;;12.70;99.90;;;11.38;96.46;95403.63;10405884;28;1626;-79
2021/08/27 00:16:04;;;;;;;;;;;12.60;99.90;;;11.23;97.71;95400.34;10396967;28;2037;-79
2021/08/27 00:21:07;;;;;;;;;;;12.50;99.90;;;11.22;98.55;95399.53;10402503;28;2351;-79
2021/08/27 00:26:10;;;;;;;;;;;12.40;99.90;;;11.23;98.17;95398.44;10398982;28;2073;-77
2021/08/27 00:31:13;;;;;;;;;;;12.40;99.90;;;11.17;99.46;95396.91;10400548;28;2458;-77
2021/08/27 00:36:16;;;;;;;;;;;12.30;99.90;;;11.16;99.43;95384.53;10407052;28;2198;-79
2021/08/27 00:41:18;;;;;;;;;;;12.30;99.90;;;11.16;99.68;95384.53;10403047;28;2087;-76
2021/08/27 00:46:22;;;;;;;;;;;12.30;99.90;;;11.07;100.00;95388.97;10396877;28;2179;-79
2021/08/27 00:51:25;;;;;;;;;;;12.20;99.90;;;11.09;100.00;95386.78;10397940;28;2097;-79
2021/08/27 00:56:28;;;;;;;;;;;12.20;99.90;;;11.14;100.00;95388.63;10407381;28;2061;-78
2021/08/27 01:01:31;;;;;;;;;;;12.20;99.90;;;11.14;100.00;95396.69;10406951;28;2316;-78
2021/08/27 01:06:34;;;;;;;;;;;12.20;99.90;;;11.14;100.00;95381.34;10411040;28;2492;-78
2021/08/27 01:11:37;;;;;;;;;;;12.30;99.90;;;11.19;100.00;95373.19;10409190;28;2485;-79
2021/08/27 01:16:41;;;;;;;;;;;12.20;99.90;;;11.31;100.00;95389.72;10413371;28;1989;-77
2021/08/27 01:22:04;;;;;;;;;;;12.30;99.90;;;11.47;99.83;95401.13;10410506;28;2012;-77
2021/08/27 01:27:27;;;;;;;;;;;12.40;99.90;;;11.67;98.72;95404.66;10404184;28;2328;-78
2021/08/27 01:32:30;;;;;;;;;;;12.60;99.90;;;11.76;97.51;95403.72;10393934;28;2266;-78
2021/08/27 01:37:32;;;;;;;;;;;12.70;99.90;;;11.85;97.28;95412.78;10399144;28;2233;-77
2021/08/27 01:42:35;;;;;;;;;;;12.70;99.90;;;11.85;97.05;95406.59;10397327;28;2091;-78
2021/08/27 01:47:38;;;;;;;;;;;12.80;99.90;;;11.89;96.56;95408.41;10394774;28;2092;-78
2021/08/27 01:52:41;;;;;;;;;;;12.80;99.90;;;11.96;96.69;95412.63;10394407;28;1935;-79
2021/08/27 01:57:44;;;;;;;;;;;12.90;99.90;;;11.96;95.88;95412.63;10403056;28;2536;-79
2021/08/27 02:02:46;;;;;;;;;;;12.90;99.90;;;11.89;96.60;95419.19;10403927;28;2135;-80
2021/08/27 02:07:49;;;;;;;;;;;12.90;99.90;;;11.40;100.00;95426.78;10398334;28;2220;-79
2021/08/27 02:12:52;;;;;;;;;;;12.60;99.90;;;11.13;100.00;95428.13;10398492;28;2150;-78
2021/08/27 02:17:55;;;;;;;;;;;12.30;99.90;;;10.99;100.00;95433.41;10404541;28;2187;-79
2021/08/27 02:22:58;;;;;;;;;;;12.10;99.90;;;10.89;100.00;95438.88;10394222;28;2262;-79
2021/08/27 02:28:02;;;;;;;;;;;12.00;99.90;;;10.77;100.00;95439.25;10428593;28;2118;-77
2021/08/27 02:33:05;;;;;;;;;;;11.90;99.90;;;10.72;100.00;95439.28;10433864;28;1906;-79
2021/08/27 02:38:07;;;;;;;;;;;11.80;99.90;;;10.69;100.00;95434.50;10419995;28;1959;-77
2021/08/27 02:43:10;;;;;;;;;;;11.70;99.90;;;10.69;100.00;95434.50;10398658;28;2170;-77
2021/08/27 02:48:13;;;;;;;;;;;11.70;99.90;;;10.71;100.00;95437.69;10400040;28;2141;-78
2021/08/27 02:53:16;;;;;;;;;;;11.60;99.90;;;10.72;100.00;95433.91;10395830;28;2240;-76
2021/08/27 02:58:19;;;;;;;;;;;11.70;99.90;;;10.71;100.00;95437.69;10391040;28;1929;-79
2021/08/27 03:03:22;;;;;;;;;;;11.70;99.90;;;10.68;100.00;95424.81;10392587;28;2103;-79
2021/08/27 03:08:24;;;;;;;;;;;11.70;99.90;;;10.72;100.00;95422.38;10388362;28;2199;-80
2021/08/27 03:13:27;;;;;;;;;;;11.70;99.90;;;10.78;100.00;95421.25;10387358;28;2246;-78
2021/08/27 03:18:30;;;;;;;;;;;11.70;99.90;;;10.77;100.00;95425.81;10392205;28;2143;-75
2021/08/27 03:23:33;;;;;;;;;;;11.80;99.90;;;10.74;100.00;95418.28;10389738;28;2189;-75
2021/08/27 03:28:36;;;;;;;;;;;11.70;99.90;;;10.76;100.00;95410.78;10392615;28;2079;-77
2021/08/27 03:33:38;;;;;;;;;;;11.70;99.90;;;10.72;100.00;95411.63;10389275;28;2115;-77
2021/08/27 03:38:41;;;;;;;;;;;11.70;99.90;;;10.72;100.00;95415.09;10392994;28;2176;-78
2021/08/27 03:43:44;;;;;;;;;;;11.70;99.90;;;10.73;100.00;95418.59;10387409;28;2142;-76
2021/08/27 03:48:47;;;;;;;;;;;11.70;99.90;;;10.74;100.00;95420.19;10390575;28;2060;-77
2021/08/27 03:53:50;;;;;;;;;;;11.70;99.90;;;10.76;100.00;95429.59;10389719;28;2156;-76
2021/08/27 03:58:53;;;;;;;;;;;11.70;99.90;;;10.65;100.00;95432.66;10388018;28;2242;-78
2021/08/27 04:03:56;;;;;;;;;;;11.60;99.90;;;10.61;100.00;95432.41;10398996;28;2246;-75
2021/08/27 04:08:59;;;;;;;;;;;11.60;99.90;;;10.53;100.00;95441.06;10395234;28;2151;-77
2021/08/27 04:14:02;;;;;;;;;;;11.50;99.90;;;10.60;100.00;95440.75;10399116;28;2151;-78
2021/08/27 04:19:04;;;;;;;;;;;11.50;99.90;;;10.51;100.00;95440.56;10414418;28;2141;-77
2021/08/27 04:24:07;;;;;;;;;;;11.50;99.90;;;10.53;100.00;95451.81;10403920;28;2114;-78
2021/08/27 04:29:11;;;;;;;;;;;11.50;99.90;;;10.39;100.00;95437.44;10399088;28;2249;-78
2021/08/27 04:34:14;;;;;;;;;;;11.50;99.90;;;10.40;100.00;95442.50;10397653;28;2131;-78
2021/08/27 04:39:17;;;;;;;;;;;11.40;99.90;;;10.38;100.00;95441.19;10401027;28;2190;-78
2021/08/27 04:44:20;;;;;;;;;;;11.40;99.90;;;10.37;100.00;95442.25;10390973;28;2185;-77
2021/08/27 04:49:23;;;;;;;;;;;11.40;99.90;;;10.31;100.00;95443.38;10410047;28;2273;-79
2021/08/27 04:54:26;;;;;;;;;;;11.30;99.90;;;10.34;100.00;95437.47;10396905;28;2246;-78
2021/08/27 04:59:28;;;;;;;;;;;11.30;99.90;;;10.34;100.00;95443.63;10397604;28;2151;-76
2021/08/27 05:04:32;;;;;;;;;;;11.30;99.90;;;10.42;100.00;95450.28;10398744;28;2098;-77
2021/08/27 05:09:35;;;;;;;;;;;11.30;99.90;;;10.40;100.00;95430.97;10401534;28;2166;-77
2021/08/27 05:14:37;;;;;;;;;;;11.40;99.90;;;10.49;100.00;95440.00;10392917;28;2139;-77
2021/08/27 05:19:40;;;;;;;;;;;11.40;99.90;;;10.48;100.00;95447.28;10409680;28;2085;-78
2021/08/27 05:24:43;;;;;;;;;;;11.40;99.90;;;10.52;100.00;95455.59;10409006;28;2498;-77
2021/08/27 05:29:46;;;;;;;;;;;11.40;99.90;;;10.54;100.00;95464.97;10395354;28;2579;-78
2021/08/27 05:34:49;;;;;;;;;;;11.40;99.90;;;10.51;100.00;95470.13;10402193;28;2103;-76
2021/08/27 05:39:52;;;;;;;;;;;11.50;99.90;;;10.62;100.00;95462.75;10396612;28;2162;-77
2021/08/27 05:44:55;;;;;;;;;;;11.50;99.90;;;10.72;100.00;95473.44;10395428;28;2190;-78
2021/08/27 05:50:11;;;;;;;;;;;11.60;99.90;;;10.79;100.00;95471.22;10393853;28;2119;-77
2021/08/27 05:55:14;;;;;;;;;;;11.60;99.90;;;10.85;100.00;95474.69;10398274;28;2134;-79
2021/08/27 06:00:16;;;;;;;;;;;11.70;99.90;;;10.75;100.00;95481.75;10405178;28;2017;-78
2021/08/27 06:05:20;;;;;;;;;;;11.70;99.90;;;10.88;100.00;95480.31;10401232;28;1880;-79
2021/08/27 06:10:24;;;;;;;;;;;11.80;99.90;;;11.05;100.00;95479.88;10411047;28;2060;-78
2021/08/27 06:15:27;;;;;;;;;;;11.90;99.90;;;11.20;100.00;95477.06;10400832;28;2008;-78
2021/08/27 06:20:32;;;;;;;;;;;12.00;99.90;;;11.44;100.00;95487.00;10396373;28;2257;-77
2021/08/27 06:25:36;;;;;;;;;;;12.20;99.90;;;11.57;100.00;95491.72;10399830;28;2002;-78
2021/08/27 06:30:39;;;;;;;;;;;12.20;99.90;;;11.72;100.00;95502.31;10392056;28;1833;-77
2021/08/27 06:35:42;;;;;;;;;;;12.40;99.90;;;11.39;100.00;95504.03;10397430;28;2042;-76
2021/08/27 06:40:44;;;;;;;;;;;12.30;99.90;;;11.57;100.00;95503.28;10392797;28;1844;-78
2021/08/27 06:45:47;;;;;;;;;;;12.30;99.90;;;11.88;100.00;95502.97;10390567;28;1986;-79
2021/08/27 06:50:50;;;;;;;;;;;12.60;99.90;;;12.10;100.00;95505.94;10387840;28;2184;-78
2021/08/27 06:55:53;;;;;;;;;;;12.80;99.90;;;12.55;100.00;95508.28;10391460;28;2018;-78
2021/08/27 07:00:56;;;;;;;;;;;13.00;99.90;;;12.56;100.00;95510.69;10392889;28;2110;-79
2021/08/27 07:05:59;;;;;;;;;;;13.20;99.90;;;12.64;100.00;95514.59;10389369;28;1884;-78
2021/08/27 07:11:02;;;;;;;;;;;13.30;99.90;;;12.45;100.00;95512.72;10393056;28;1986;-76
2021/08/27 07:16:05;;;;;;;;;;;13.30;99.90;;;12.52;100.00;95516.94;10388981;28;2089;-77
2021/08/27 07:21:08;;;;;;;;;;;13.20;99.90;;;13.40;100.00;95532.28;10390210;28;2042;-79
2021/08/27 07:26:11;;;;;;;;;;;13.60;99.90;;;13.44;100.00;95522.50;10393491;28;2104;-78
2021/08/27 07:31:14;;;;;;;;;;;13.90;99.90;;;13.58;100.00;95516.31;10391586;28;1987;-77
2021/08/27 07:36:16;;;;;;;;;;;14.10;99.90;;;14.17;93.07;95522.72;10389088;28;2101;-75
2021/08/27 07:41:19;;;;;;;;;;;14.60;99.90;;;13.65;94.49;95524.81;10393192;28;2049;-77
2021/08/27 07:46:22;;;;;;;;;;;14.50;99.90;;;13.83;93.29;95517.75;10402180;28;2010;-75
2021/08/27 07:51:25;;;;;;;;;;;14.50;99.90;;;14.30;93.88;95516.47;10397445;28;1999;-77
2021/08/27 07:56:28;;;;;;;;;;;14.60;99.90;;;14.59;90.58;95535.91;10415634;28;1983;-77
2021/08/27 08:01:31;;;;;;;;;;;14.90;99.90;;;14.51;89.95;95519.59;10397116;28;2052;-76
2021/08/27 08:06:35;;;;;;;;;;;15.00;99.90;;;14.80;84.77;95527.31;10407179;28;2002;-77
2021/08/27 08:11:38;;;;;;;;;;;15.40;99.90;;;15.07;87.09;95535.31;10398564;28;1888;-79
2021/08/27 08:16:40;;;;;;;;;;;15.50;99.90;;;15.07;87.84;95529.91;10394576;28;2045;-79
2021/08/27 08:21:43;;;;;;;;;;;15.60;99.90;;;14.58;87.57;95530.81;10402164;28;2116;-77
2021/08/27 08:26:47;;;;;;;;;;;15.40;99.90;;;14.26;90.47;95542.53;10395812;28;2122;-76
2021/08/27 08:31:51;;;;;;;;;;;15.20;99.90;;;13.15;98.20;95543.47;10394005;28;2084;-78
2021/08/27 08:36:54;;;;;;;;;;;14.70;99.90;;;12.87;100.00;95547.97;10395564;28;2037;-77
2021/08/27 08:41:57;;;;;;;;;;;14.00;99.90;;;12.71;100.00;95552.78;10392850;28;3269;-76
2021/08/27 08:47:00;;;;;;;;;;;13.80;99.90;;;13.06;100.00;95564.16;10408423;28;2615;-77
2021/08/27 08:52:06;;;;;;;;;;;13.80;99.90;;;13.65;100.00;95559.94;10397005;28;2051;-77
2021/08/27 08:57:09;;;;;;;;;;;14.10;99.90;;;14.11;97.85;95559.06;10400850;28;2342;-76
2021/08/27 09:02:11;;;;;;;;;;;14.50;99.90;;;14.26;96.78;95564.19;10393316;28;2245;-76
2021/08/27 09:07:14;;;;;;;;;;;14.90;99.90;;;14.46;90.34;95558.38;10389472;28;2133;-78
2021/08/27 09:12:18;;;;;;;;;;;15.10;99.90;;;14.80;84.27;95551.66;10397500;28;2370;-77
2021/08/27 09:17:21;;;;;;;;;;;15.30;99.90;;;15.47;84.74;95553.59;10399002;28;1969;-78
2021/08/27 09:22:24;;;;;;;;;;;15.70;99.90;;;15.47;78.48;95550.91;10393310;28;2040;-77
2021/08/27 09:27:26;;;;;;;;;;;15.90;99.90;;;15.64;77.59;95551.00;10394875;28;2073;-77
2021/08/27 09:32:29;;;;;;;;;;;16.30;99.90;;;16.43;75.32;95540.13;10391908;28;2164;-76
2021/08/27 09:37:32;;;;;;;;;;;16.60;99.90;;;16.88;70.22;95542.63;10395606;28;2104;-79
2021/08/27 09:42:35;;;;;;;;;;;17.10;99.90;;;16.63;71.13;95533.31;10391561;28;1970;-78
2021/08/27 09:47:38;;;;;;;;;;;17.20;99.90;;;16.13;73.02;95541.81;10402481;28;2113;-77
2021/08/27 09:52:41;;;;;;;;;;;17.00;99.90;;;16.01;76.04;95536.19;10393891;28;2100;-77
2021/08/27 09:57:45;;;;;;;;;;;16.80;99.90;;;15.73;75.67;95534.81;10400112;28;2075;-77
2021/08/27 10:02:48;;;;;;;;;;;16.80;99.90;;;15.46;73.72;95539.25;10397987;28;2301;-77
2021/08/27 10:07:51;;;;;;;;;;;16.40;99.90;;;15.13;82.06;95544.13;10404297;28;2066;-78
2021/08/27 10:12:54;;;;;;;;;;;16.10;99.90;;;14.86;85.90;95542.31;10415028;28;2112;-77
2021/08/27 10:17:57;;;;;;;;;;;15.80;99.90;;;14.53;89.88;95553.34;10405866;28;1990;-78
2021/08/27 10:23:00;;;;;;;;;;;15.60;99.90;;;13.66;94.21;95570.44;10409741;28;1898;-77
2021/08/27 10:28:03;;;;;;;;;;;15.00;99.90;;;12.69;100.00;95566.56;10420378;28;1943;-77
2021/08/27 10:33:06;;;;;;;;;;;14.10;99.90;;;13.31;100.00;95562.97;10423610;28;1422;-78
2021/08/27 10:38:09;;;;;;;;;;;13.90;99.90;;;13.88;100.00;95564.38;10415252;28;2074;-77
2021/08/27 10:43:12;;;;;;;;;;;14.20;99.90;;;14.41;99.88;95553.03;10389560;28;2136;-79
2021/08/27 10:48:15;;;;;;;;;;;14.70;99.90;;;14.87;97.57;95554.75;10394085;28;2145;-77
2021/08/27 10:53:18;;;;;;;;;;;15.10;99.90;;;14.52;96.57;95549.03;10396951;28;2026;-77
2021/08/27 10:58:22;;;;;;;;;;;15.40;99.90;;;14.42;95.42;95543.81;10395270;28;3445;-77
2021/08/27 11:03:27;;;;;;;;;;;15.30;99.90;;;14.19;99.40;95542.94;10391348;28;2346;-78
2021/08/27 11:08:30;;;;;;;;;;;15.20;99.90;;;13.99;97.35;95538.72;10398892;28;1967;-75
2021/08/27 11:13:33;;;;;;;;;;;15.00;99.90;;;14.29;96.73;95542.72;10381400;28;2625;-77
2021/08/27 11:18:36;;;;;;;;;;;15.10;99.90;;;14.83;93.92;95534.84;10393697;28;2112;-78
2021/08/27 11:23:38;;;;;;;;;;;15.40;99.90;;;15.18;92.38;95537.78;10394759;28;1971;-77
2021/08/27 11:28:41;;;;;;;;;;;15.80;99.90;;;15.49;89.61;95535.91;10402584;28;2180;-76
2021/08/27 11:33:44;;;;;;;;;;;16.20;99.90;;;16.31;82.14;95528.31;10421207;28;2345;-77
2021/08/27 11:38:47;;;;;;;;;;;16.70;99.90;;;16.70;79.56;95511.94;10421203;28;1981;-80
2021/08/27 11:43:57;;;;;;;;;;;17.10;99.90;;;16.98;76.90;95498.84;10413040;28;1869;-76
2021/08/27 11:49:00;;;;;;;;;;;17.60;99.90;;;16.03;75.60;95506.88;10424073;28;1900;-77
2021/08/27 11:54:03;;;;;;;;;;;17.30;99.90;;;16.19;78.26;95510.72;10416858;28;2160;-77
2021/08/27 11:59:06;;;;;;;;;;;17.10;99.90;;;16.01;77.82;95509.06;10420681;28;1953;-77
2021/08/27 12:04:09;;;;;;;;;;;16.90;99.90;;;16.49;77.78;95513.66;10436249;28;2027;-75
2021/08/27 12:09:12;;;;;;;;;;;17.10;99.90;;;16.83;71.75;95503.97;10419560;28;1930;-77
2021/08/27 12:14:14;;;;;;;;;;;17.30;99.90;;;16.80;71.23;95507.34;10415978;28;1800;-78
2021/08/27 12:19:17;;;;;;;;;;;17.50;99.90;;;16.66;74.30;95508.22;10410429;28;2005;-79
2021/08/27 12:24:20;;;;;;;;;;;17.40;99.90;;;16.84;72.43;95508.28;10412388;28;2033;-77
2021/08/27 12:29:23;;;;;;;;;;;17.50;99.90;;;17.58;69.69;95497.13;10413676;28;1960;-77
2021/08/27 12:34:46;;;;;;;;;;;18.00;99.90;;;18.37;64.28;95503.84;10431257;28;1653;-78
2021/08/27 12:39:49;;;;;;;;;;;18.90;99.90;;;19.05;65.18;95495.53;10429764;28;2074;-76
2021/08/27 12:44:52;;;;;;;;;;;19.60;99.90;;;19.79;62.75;95491.91;10417167;28;1431;-76
2021/08/27 12:49:55;;;;;;;;;;;20.10;99.90;;;20.00;61.56;95501.91;10409456;28;1931;-77
2021/08/27 12:54:57;;;;;;;;;;;20.60;99.90;;;19.87;61.69;95498.38;10407495;28;1916;-79
2021/08/27 13:00:03;;;;;;;;;;;20.70;99.90;;;18.73;62.81;95499.78;10403243;28;3323;-76
2021/08/27 13:05:10;;;;;;;;;;;20.10;99.90;;;17.21;66.93;95520.41;10409364;28;2847;-78
2021/08/27 13:10:13;;;;;;;;;;;18.90;99.90;;;16.22;64.19;95525.56;10412890;28;2676;-78
2021/08/27 13:15:19;;;;;;;;;;;17.80;99.90;;;16.11;62.01;95530.47;10401759;28;2341;-79
2021/08/27 13:20:22;;;;;;;;;;;17.10;99.90;;;16.58;60.27;95528.03;10411220;28;1993;-77
2021/08/27 13:25:25;;;;;;;;;;;17.10;99.90;;;17.29;57.64;95531.22;10402132;28;2226;-78
2021/08/27 13:30:28;;;;;;;;;;;17.90;99.90;;;17.01;59.57;95543.56;10399609;28;2057;-78
2021/08/27 13:35:30;;;;;;;;;;;17.90;99.90;;;17.16;57.24;95532.22;10401195;28;2330;-76
2021/08/27 13:40:33;;;;;;;;;;;17.80;99.90;;;16.72;54.85;95536.03;10394969;28;2005;-78
2021/08/27 13:45:36;;;;;;;;;;;17.80;99.90;;;16.83;55.64;95528.41;10400791;28;2034;-77
2021/08/27 13:50:39;;;;;;;;;;;17.50;99.90;;;16.98;55.63;95545.00;10402547;28;1841;-79
2021/08/27 13:55:42;;;;;;;;;;;17.60;99.90;;;16.85;56.93;95547.88;10411766;28;2037;-78
2021/08/27 14:00:45;;;;;;;;;;;17.70;99.90;;;16.21;57.41;95551.88;10392961;28;2081;-79
2021/08/27 14:05:48;;;;;;;;;;;17.30;99.90;;;15.92;59.99;95562.47;10393938;28;1805;-78
2021/08/27 14:10:51;;;;;;;;;;;17.00;99.90;;;16.58;57.80;95533.44;10392186;28;2061;-77
2021/08/27 14:15:53;;;;;;;;;;;17.10;99.90;;;17.10;55.58;95536.22;10402198;28;2001;-79
2021/08/27 14:20:56;;;;;;;;;;;17.70;99.90;;;17.16;56.59;95525.97;10399173;28;1923;-79
2021/08/27 14:26:13;;;;;;;;;;;17.90;99.90;;;16.97;59.09;95529.81;10407744;28;1998;-79
2021/08/27 14:31:16;;;;;;;;;;;17.90;99.90;;;16.91;57.45;95530.31;10405886;28;2049;-77
2021/08/27 14:36:19;;;;;;;;;;;17.90;99.90;;;17.48;54.51;95527.38;10417086;28;2334;-78
2021/08/27 14:41:22;;;;;;;;;;;18.10;99.90;;;17.44;53.87;95537.31;10401864;28;2007;-78
2021/08/27 14:46:25;;;;;;;;;;;18.20;99.90;;;17.65;54.01;95532.75;10416934;28;2042;-78
2021/08/27 14:51:28;;;;;;;;;;;18.40;99.90;;;16.75;56.18;95538.94;10403834;28;2052;-78
2021/08/27 14:56:31;;;;;;;;;;;17.90;99.90;;;16.38;56.13;95534.06;10404491;28;1826;-77
2021/08/27 15:01:34;;;;;;;;;;;17.50;99.90;;;16.75;55.53;95533.50;10421079;28;2037;-77
2021/08/27 15:06:37;;;;;;;;;;;17.50;99.90;;;16.93;53.54;95531.59;10437075;28;1924;-78
2021/08/27 15:11:39;;;;;;;;;;;17.70;99.90;;;17.06;53.96;95538.00;10427192;28;1901;-78
2021/08/27 15:16:42;;;;;;;;;;;17.80;99.90;;;16.85;53.55;95539.72;10429269;28;1882;-79
2021/08/27 15:21:45;;;;;;;;;;;17.90;99.90;;;16.64;53.22;95542.25;10421952;28;1689;-77
2021/08/27 15:26:48;;;;;;;;;;;17.60;99.90;;;16.89;52.96;95537.97;10438883;28;1912;-80
2021/08/27 15:31:55;;;;;;;;;;;17.70;99.90;;;17.03;51.60;95533.19;10441025;28;1554;-79
2021/08/27 15:36:58;;;;;;;;;;;17.80;99.90;;;17.45;51.62;95528.03;10436382;28;1902;-79
2021/08/27 15:42:00;;;;;;;;;;;18.10;99.90;;;17.08;51.70;95535.75;10424409;28;3322;-76
2021/08/27 15:47:03;;;;;;;;;;;18.20;99.90;;;16.79;52.83;95543.72;10432742;28;2437;-77
2021/08/27 15:52:06;;;;;;;;;;;17.90;99.90;;;16.39;54.68;95535.66;10426925;28;1739;-76
2021/08/27 15:57:10;;;;;;;;;;;17.60;99.90;;;16.70;54.28;95530.16;10433568;28;1956;-78
2021/08/27 16:02:13;;;;;;;;;;;17.60;99.90;;;16.58;56.05;95532.66;10428553;28;1757;-79
2021/08/27 16:07:16;;;;;;;;;;;17.50;99.90;;;16.84;55.58;95527.28;10424956;28;1912;-77
2021/08/27 16:12:19;;;;;;;;;;;17.60;99.90;;;16.84;54.39;95538.13;10410569;28;2110;-77
2021/08/27 16:17:22;;;;;;;;;;;17.70;99.90;;;16.65;55.28;95533.78;10419825;28;2376;-77
2021/08/27 16:22:24;;;;;;;;;;;17.60;99.90;;;16.59;55.48;95540.47;10408861;28;2050;-79
2021/08/27 16:27:27;;;;;;;;;;;17.60;99.90;;;16.38;55.22;95542.19;10418193;28;2116;-79
2021/08/27 16:32:30;;;;;;;;;;;17.50;99.90;;;16.33;54.21;95539.63;10420874;28;1786;-79
2021/08/27 16:37:33;;;;;;;;;;;17.40;99.90;;;16.07;56.63;95542.25;10406896;28;1993;-78
2021/08/27 16:42:36;;;;;;;;;;;17.20;99.90;;;15.99;55.49;95537.63;10400338;28;2103;-77
2021/08/27 16:47:38;;;;;;;;;;;17.10;99.90;;;15.59;57.66;95537.56;10406720;28;2127;-79
2021/08/27 16:52:41;;;;;;;;;;;16.80;99.90;;;15.48;59.58;95534.31;10403442;28;2085;-78
2021/08/27 16:57:44;;;;;;;;;;;16.60;99.90;;;15.28;59.68;95540.25;10405226;28;1948;-77
2021/08/27 17:02:47;;;;;;;;;;;16.50;99.90;;;15.12;60.08;95537.09;10418846;28;2042;-79
2021/08/27 17:07:50;;;;;;;;;;;16.30;99.90;;;14.86;61.72;95548.53;10395954;28;2030;-78
2021/08/27 17:12:53;;;;;;;;;;;16.10;99.90;;;14.84;62.56;95542.63;10403931;28;1916;-79
2021/08/27 17:17:55;;;;;;;;;;;16.00;99.90;;;14.93;62.65;95545.41;10399057;28;2378;-78
2021/08/27 17:22:58;;;;;;;;;;;16.00;99.90;;;15.02;63.29;95542.78;10397550;28;2057;-77
2021/08/27 17:28:01;;;;;;;;;;;16.00;99.90;;;15.13;63.29;95550.34;10400675;28;2217;-80
2021/08/27 17:33:04;;;;;;;;;;;16.00;99.90;;;15.25;62.52;95543.56;10403109;28;2237;-78
2021/08/27 17:38:07;;;;;;;;;;;16.10;99.90;;;15.20;63.72;95549.09;10424643;28;1954;-76
2021/08/27 17:43:12;;;;;;;;;;;16.20;99.90;;;15.24;61.90;95561.72;10431657;28;2009;-77
2021/08/27 17:48:14;;;;;;;;;;;16.20;99.90;;;15.06;63.62;95566.22;10415624;28;1713;-78
2021/08/27 17:53:17;;;;;;;;;;;16.10;99.90;;;14.93;65.02;95561.66;10397456;28;2155;-78
2021/08/27 17:58:20;;;;;;;;;;;16.00;99.90;;;14.86;65.46;95572.09;10399004;28;1953;-75
2021/08/27 18:03:23;;;;;;;;;;;15.90;99.90;;;14.72;66.80;95582.16;10397073;28;2109;-79
2021/08/27 18:08:26;;;;;;;;;;;15.90;99.90;;;14.64;67.75;95582.88;10397606;28;2144;-77
2021/08/27 18:13:28;;;;;;;;;;;15.70;99.90;;;14.56;68.94;95593.28;10396358;28;1989;-77
2021/08/27 18:18:31;;;;;;;;;;;15.70;99.90;;;14.54;68.49;95587.41;10395098;28;2112;-78
2021/08/27 18:23:35;;;;;;;;;;;15.60;99.90;;;14.46;68.93;95592.69;10395577;28;2078;-78
2021/08/27 18:28:38;;;;;;;;;;;15.50;99.90;;;14.34;70.76;95601.31;10390693;28;2095;-78
2021/08/27 18:33:41;;;;;;;;;;;15.40;99.90;;;14.33;71.05;95600.50;10391369;28;1952;-75
2021/08/27 18:38:43;;;;;;;;;;;15.40;99.90;;;14.33;74.90;95610.53;10410825;28;2085;-79
2021/08/27 18:43:46;;;;;;;;;;;15.40;99.90;;;14.25;80.50;95605.81;10392288;28;1899;-76
2021/08/27 18:48:49;;;;;;;;;;;15.30;99.90;;;14.16;82.67;95618.44;10397276;28;2120;-78
2021/08/27 18:53:52;;;;;;;;;;;15.30;99.90;;;14.07;84.14;95621.03;10393923;28;2025;-78
2021/08/27 18:58:55;;;;;;;;;;;15.20;99.90;;;13.98;85.18;95622.81;10391170;28;2048;-78
2021/08/27 19:03:59;;;;;;;;;;;15.10;99.90;;;13.96;85.70;95631.22;10395629;28;2017;-76
2021/08/27 19:09:02;;;;;;;;;;;15.10;99.90;;;13.94;83.25;95633.44;10392935;28;1896;-77
2021/08/27 19:14:05;;;;;;;;;;;15.00;99.90;;;13.91;83.08;95633.22;10390324;28;2041;-77
2021/08/27 19:19:08;;;;;;;;;;;15.00;99.90;;;13.90;83.91;95632.41;10394066;28;1914;-79
2021/08/27 19:24:10;;;;;;;;;;;15.00;99.90;;;13.90;85.49;95645.94;10393117;28;2096;-79
2021/08/27 19:29:13;;;;;;;;;;;15.00;99.90;;;13.81;86.66;95645.03;10392165;28;2119;-79
2021/08/27 19:34:16;;;;;;;;;;;14.90;99.90;;;13.76;87.90;95647.81;10400245;28;1653;-78
2021/08/27 19:39:19;;;;;;;;;;;14.90;99.90;;;13.74;88.39;95649.97;10403792;28;1980;-79
2021/08/27 19:44:22;;;;;;;;;;;14.80;99.90;;;13.70;87.45;95652.50;10405804;28;1860;-77
2021/08/27 19:49:25;;;;;;;;;;;14.80;99.90;;;13.62;86.22;95652.38;10399496;28;2079;-78
2021/08/27 19:54:27;;;;;;;;;;;14.70;99.90;;;13.58;86.71;95654.06;10399590;28;1809;-78
2021/08/27 19:59:30;;;;;;;;;;;14.70;99.90;;;13.57;86.98;95650.56;10400817;28;2053;-77
2021/08/27 20:04:36;;;;;;;;;;;14.60;99.90;;;13.52;86.58;95654.13;10402416;28;1912;-77
2021/08/27 20:09:39;;;;;;;;;;;14.60;99.90;;;13.48;87.30;95649.59;10404581;28;2038;-78
2021/08/27 20:14:41;;;;;;;;;;;14.60;99.90;;;13.39;88.45;95646.78;10401554;28;2040;-78
2021/08/27 20:19:44;;;;;;;;;;;14.50;99.90;;;13.33;88.50;95647.16;10399573;28;2010;-79
2021/08/27 20:24:47;;;;;;;;;;;14.40;99.90;;;13.27;88.80;95651.03;10401497;28;1885;-78
2021/08/27 20:29:50;;;;;;;;;;;14.40;99.90;;;13.28;88.85;95648.03;10397474;28;2179;-78
2021/08/27 20:34:53;;;;;;;;;;;14.30;99.90;;;13.29;86.52;95656.94;10399547;28;2174;-77
2021/08/27 20:39:55;;;;;;;;;;;14.30;99.90;;;13.26;85.48;95650.22;10398920;28;2003;-78
2021/08/27 20:44:58;;;;;;;;;;;14.30;99.90;;;13.19;83.68;95644.38;10398219;28;2006;-79
2021/08/27 20:50:01;;;;;;;;;;;14.20;99.90;;;13.11;84.11;95650.44;10401210;28;2057;-78
2021/08/27 20:55:04;;;;;;;;;;;14.20;99.90;;;13.11;83.53;95659.34;10403058;28;2407;-78
2021/08/27 21:00:06;;;;;;;;;;;14.20;99.90;;;13.17;81.23;95657.38;10400728;28;2072;-79
2021/08/27 21:05:09;;;;;;;;;;;14.20;99.90;;;13.20;80.69;95654.91;10398936;28;2045;-79
2021/08/27 21:10:12;;;;;;;;;;;14.20;99.90;;;13.16;81.19;95655.72;10397879;28;2112;-79
2021/08/27 21:15:15;;;;;;;;;;;14.20;99.90;;;13.12;80.60;95654.72;10397040;28;2034;-77
2021/08/27 21:20:19;;;;;;;;;;;14.20;99.90;;;12.85;81.09;95656.19;10396586;28;2033;-76
2021/08/27 21:25:22;;;;;;;;;;;14.10;99.90;;;12.84;80.43;95654.56;10394731;28;1855;-78
2021/08/27 21:30:25;;;;;;;;;;;14.00;99.90;;;12.73;81.43;95641.53;10390842;28;2132;-77
2021/08/27 21:35:28;;;;;;;;;;;13.90;99.90;;;12.71;81.76;95649.88;10394058;28;1978;-77
2021/08/27 21:40:30;;;;;;;;;;;13.80;99.90;;;12.69;82.52;95638.59;10397580;28;1914;-77
2021/08/27 21:45:33;;;;;;;;;;;13.70;99.90;;;12.76;82.06;95647.13;10393395;28;2085;-78
2021/08/27 21:50:36;;;;;;;;;;;13.80;99.90;;;12.80;82.08;95631.97;10395022;28;2064;-78
2021/08/27 21:55:39;;;;;;;;;;;13.90;99.90;;;12.82;82.59;95629.78;10395378;28;2164;-77
2021/08/27 22:00:42;;;;;;;;;;;13.80;99.90;;;12.84;83.47;95632.97;10395572;28;2233;-78
2021/08/27 22:05:45;;;;;;;;;;;13.90;99.90;;;12.83;84.08;95634.06;10393234;28;2258;-77
2021/08/27 22:10:48;;;;;;;;;;;13.80;99.90;;;12.88;85.17;95627.81;10411757;28;2143;-76
2021/08/27 22:15:50;;;;;;;;;;;13.90;99.90;;;12.82;85.35;95628.97;10391868;28;2342;-76
2021/08/27 22:20:53;;;;;;;;;;;13.90;99.90;;;12.79;86.08;95630.38;10392967;28;2213;-78
2021/08/27 22:25:56;;;;;;;;;;;13.90;99.90;;;12.80;86.53;95626.56;10393128;28;2354;-78
2021/08/27 22:30:59;;;;;;;;;;;13.80;99.90;;;12.74;87.38;95626.94;10396547;28;2153;-77
2021/08/27 22:36:02;;;;;;;;;;;13.90;99.90;;;12.79;88.58;95626.84;10394297;28;2147;-76
2021/08/27 22:41:05;;;;;;;;;;;13.80;99.90;;;12.84;88.79;95622.19;10392083;28;2153;-78
2021/08/27 22:46:07;;;;;;;;;;;13.80;99.90;;;12.82;88.73;95624.38;10395693;28;2224;-79
2021/08/27 22:51:11;;;;;;;;;;;13.80;99.90;;;12.82;89.15;95629.78;10391111;28;2129;-79
2021/08/27 22:56:14;;;;;;;;;;;13.80;99.90;;;12.77;89.81;95639.84;10392559;28;2216;-78
2021/08/27 23:01:16;;;;;;;;;;;13.80;99.90;;;12.75;91.45;95633.94;10392769;28;2068;-78
2021/08/27 23:06:20;;;;;;;;;;;13.80;99.90;;;12.73;91.25;95641.53;10390134;28;2163;-77